createdAt,value
2023-03-29T00:00:14.814Z,86.78
2023-03-29T00:02:48.735Z,86.79
2023-03-29T00:05:19.111Z,86.96
2023-03-29T00:07:46.927Z,86.95
2023-03-29T00:10:14.973Z,87.09
2023-03-29T00:12:42.883Z,87.17
2023-03-29T00:15:11.211Z,87.10
2023-03-29T00:17:41.222Z,87.08
2023-03-29T00:20:10.337Z,87.19
2023-03-29T00:22:39.881Z,87.19
2023-03-29T00:25:08.552Z,87.27
2023-03-29T00:27:36.619Z,87.35
2023-03-29T00:30:06.756Z,87.35
2023-03-29T00:32:34.819Z,87.49
2023-03-29T00:35:05.067Z,87.38
2023-03-29T00:37:33.011Z,87.32
2023-03-29T00:40:01.090Z,87.24
2023-03-29T00:42:29.039Z,87.31
2023-03-29T00:45:03.760Z,87.05
2023-03-29T00:47:42.695Z,87.00
2023-03-29T00:50:12.398Z,87.32
2023-03-29T00:52:41.191Z,87.28
2023-03-29T00:55:14.475Z,87.12
2023-03-29T00:57:46.490Z,87.09
2023-03-29T01:00:20.915Z,87.05
2023-03-29T01:02:54.457Z,86.84
2023-03-29T01:05:34.232Z,87.01
2023-03-29T01:08:06.633Z,87.01
2023-03-29T01:10:42.817Z,86.74
2023-03-29T01:13:20.892Z,86.79
2023-03-29T01:15:48.980Z,86.90
2023-03-29T01:18:19.941Z,86.93
2023-03-29T01:21:05.195Z,86.83
2023-03-29T01:24:07.861Z,86.77
2023-03-29T01:27:00.698Z,86.54
2023-03-29T01:29:38.561Z,86.63
2023-03-29T01:32:06.913Z,86.44
2023-03-29T01:34:38.598Z,86.65
2023-03-29T01:37:13.702Z,86.55
2023-03-29T01:39:41.763Z,86.43
2023-03-29T01:42:29.506Z,86.43
2023-03-29T01:45:15.429Z,86.46
2023-03-29T01:47:50.363Z,86.23
2023-03-29T01:50:33.554Z,86.14
2023-03-29T01:53:11.348Z,86.06
2023-03-29T01:55:44.700Z,85.90
2023-03-29T01:58:16.416Z,85.76
2023-03-29T02:00:45.922Z,85.45
2023-03-29T02:03:17.556Z,85.30
2023-03-29T02:05:46.016Z,85.11
2023-03-29T02:08:17.723Z,84.99
2023-03-29T02:10:46.018Z,85.14
2023-03-29T02:13:14.060Z,85.14
2023-03-29T02:15:44.341Z,84.86
2023-03-29T02:18:13.929Z,84.84
2023-03-29T02:20:47.280Z,84.82
2023-03-29T02:23:34.171Z,84.60
2023-03-29T02:26:03.956Z,84.21
2023-03-29T02:28:33.246Z,84.16
2023-03-29T02:31:15.849Z,83.83
2023-03-29T02:33:57.188Z,84.05
2023-03-29T02:36:44.093Z,83.92
2023-03-29T02:39:15.682Z,83.87
2023-03-29T02:41:47.199Z,83.80
2023-03-29T02:44:21.536Z,83.75
2023-03-29T02:47:05.769Z,83.77
2023-03-29T02:49:35.060Z,83.85
2023-03-29T02:52:10.843Z,83.99
2023-03-29T02:54:43.243Z,83.82
2023-03-29T02:57:11.443Z,84.08
2023-03-29T02:59:40.824Z,84.64
2023-03-29T03:02:08.827Z,85.26
2023-03-29T03:04:37.760Z,86.43
2023-03-29T03:07:05.715Z,87.08
2023-03-29T03:09:33.826Z,87.31
2023-03-29T03:12:01.904Z,87.78
2023-03-29T03:14:29.911Z,88.18
2023-03-29T03:17:03.905Z,88.65
2023-03-29T03:19:32.583Z,88.85
2023-03-29T03:22:00.661Z,89.31
2023-03-29T03:24:28.579Z,89.62
2023-03-29T03:26:58.101Z,89.83
2023-03-29T03:29:28.410Z,90.41
2023-03-29T03:32:32.687Z,90.36
2023-03-29T03:35:19.229Z,90.59
2023-03-29T03:37:47.510Z,90.74
2023-03-29T03:40:17.595Z,90.95
2023-03-29T03:42:45.914Z,91.07
2023-03-29T03:45:14.098Z,91.12
2023-03-29T03:47:52.147Z,91.35
2023-03-29T03:50:28.568Z,91.43
2023-03-29T03:52:56.566Z,91.44
2023-03-29T03:55:24.550Z,91.75
2023-03-29T03:58:02.914Z,91.83
2023-03-29T04:00:31.220Z,92.01
2023-03-29T04:03:17.156Z,92.00
2023-03-29T04:05:47.115Z,92.04
2023-03-29T04:08:16.602Z,92.11
2023-03-29T04:11:03.934Z,92.21
2023-03-29T04:13:37.652Z,92.05
2023-03-29T04:16:40.927Z,92.14
2023-03-29T04:19:31.526Z,91.99
2023-03-29T04:21:59.490Z,92.05
2023-03-29T04:24:27.596Z,92.21
2023-03-29T04:27:14.025Z,91.99
2023-03-29T04:29:44.773Z,91.82
2023-03-29T04:32:22.177Z,91.75
2023-03-29T04:35:10.644Z,91.63
2023-03-29T04:37:40.473Z,91.70
2023-03-29T04:40:14.160Z,91.65
2023-03-29T04:43:04.075Z,91.53
2023-03-29T04:45:32.732Z,91.27
2023-03-29T04:48:10.727Z,91.11
2023-03-29T04:50:45.941Z,90.90
2023-03-29T04:53:14.692Z,90.93
2023-03-29T04:55:46.383Z,90.96
2023-03-29T04:58:21.598Z,91.01
2023-03-29T05:00:51.625Z,90.86
2023-03-29T05:03:45.523Z,90.55
2023-03-29T05:06:24.691Z,90.32
2023-03-29T05:08:52.740Z,90.31
2023-03-29T05:11:25.405Z,89.88
2023-03-29T05:13:57.126Z,89.67
2023-03-29T05:16:30.176Z,89.61
2023-03-29T05:18:59.567Z,89.58
2023-03-29T05:21:28.483Z,89.41
2023-03-29T05:23:59.272Z,89.42
2023-03-29T05:26:47.735Z,89.39
2023-03-29T05:29:15.729Z,89.27
2023-03-29T05:31:47.156Z,89.16
2023-03-29T05:34:17.079Z,89.18
2023-03-29T05:36:49.365Z,89.02
2023-03-29T05:39:17.539Z,88.82
2023-03-29T05:41:46.533Z,88.71
2023-03-29T05:44:28.736Z,88.64
2023-03-29T05:47:06.997Z,88.45
2023-03-29T05:49:35.227Z,88.44
2023-03-29T05:52:24.523Z,88.32
2023-03-29T05:54:52.873Z,88.22
2023-03-29T05:57:21.537Z,88.01
2023-03-29T05:59:49.530Z,87.87
2023-03-29T06:02:18.732Z,87.76
2023-03-29T06:04:51.923Z,87.65
2023-03-29T06:07:25.603Z,87.56
2023-03-29T06:10:12.261Z,87.40
2023-03-29T06:12:45.059Z,87.30
2023-03-29T06:15:14.195Z,87.24
2023-03-29T06:17:47.279Z,87.15
2023-03-29T06:20:17.113Z,87.15
2023-03-29T06:22:49.358Z,86.91
2023-03-29T06:25:19.592Z,86.98
2023-03-29T06:27:49.631Z,86.90
2023-03-29T06:30:20.897Z,86.54
2023-03-29T06:32:54.724Z,86.18
2023-03-29T06:35:36.334Z,86.26
2023-03-29T06:38:08.101Z,86.27
2023-03-29T06:41:07.240Z,86.10
2023-03-29T06:43:55.958Z,85.97
2023-03-29T06:46:26.170Z,85.54
2023-03-29T06:49:01.543Z,85.51
2023-03-29T06:52:42.589Z,85.38
2023-03-29T06:58:52.446Z,84.48
2023-03-29T07:01:34.618Z,84.39
2023-03-29T07:04:14.797Z,83.97
2023-03-29T07:07:04.197Z,83.88
2023-03-29T07:09:35.905Z,83.71
2023-03-29T07:12:42.162Z,83.36
2023-03-29T07:15:11.399Z,82.78
2023-03-29T07:18:04.663Z,82.24
2023-03-29T07:20:34.095Z,81.81
2023-03-29T07:23:09.133Z,81.67
2023-03-29T07:25:37.576Z,81.63
2023-03-29T07:28:06.780Z,81.36
2023-03-29T07:30:35.277Z,81.01
2023-03-29T07:33:15.011Z,80.86
2023-03-29T07:35:49.552Z,80.56
2023-03-29T07:38:18.531Z,80.72
2023-03-29T07:40:50.885Z,80.98
2023-03-29T07:43:37.195Z,81.44
2023-03-29T07:46:06.728Z,81.06
2023-03-29T07:48:38.990Z,80.82
2023-03-29T07:51:11.953Z,80.52
2023-03-29T07:53:46.303Z,80.49
2023-03-29T07:56:32.781Z,80.65
2023-03-29T07:59:16.749Z,80.61
2023-03-29T08:01:48.394Z,79.28
2023-03-29T08:04:40.473Z,78.56
2023-03-29T08:07:17.690Z,78.44
2023-03-29T08:10:09.533Z,78.82
2023-03-29T08:12:56.891Z,79.11
2023-03-29T08:15:48.824Z,79.11
2023-03-29T08:18:28.139Z,79.39
2023-03-29T08:20:56.836Z,80.43
2023-03-29T08:23:24.933Z,80.09
2023-03-29T08:26:18.121Z,80.05
2023-03-29T08:28:48.651Z,80.03
2023-03-29T08:31:22.612Z,79.75
2023-03-29T08:33:50.751Z,79.63
2023-03-29T08:36:37.362Z,79.68
2023-03-29T08:39:12.685Z,79.19
2023-03-29T08:42:15.174Z,78.30
2023-03-29T08:45:16.521Z,78.89
2023-03-29T08:48:02.337Z,77.89
2023-03-29T08:50:52.765Z,77.96
2023-03-29T08:53:37.632Z,77.37
2023-03-29T08:56:20.719Z,76.95
2023-03-29T08:58:49.818Z,77.98
2023-03-29T09:01:19.051Z,77.92
2023-03-29T09:04:13.953Z,78.26
2023-03-29T09:07:03.659Z,78.31
2023-03-29T09:09:40.028Z,78.16
2023-03-29T09:12:27.029Z,78.11
2023-03-29T09:15:22.058Z,78.47
2023-03-29T09:18:19.150Z,78.16
2023-03-29T09:20:57.135Z,78.19
2023-03-29T09:23:41.950Z,77.51
2023-03-29T09:27:08.552Z,77.58
2023-03-29T09:30:10.996Z,76.98
2023-03-29T09:33:11.994Z,78.00
2023-03-29T09:36:17.876Z,78.30
2023-03-29T09:38:51.040Z,78.90
2023-03-29T09:41:27.038Z,78.47
2023-03-29T09:43:58.203Z,78.27
2023-03-29T09:46:43.461Z,78.29
2023-03-29T09:49:19.919Z,78.04
2023-03-29T09:51:50.226Z,77.52
2023-03-29T09:54:20.038Z,77.60
2023-03-29T09:57:20.965Z,77.74
2023-03-29T09:59:51.776Z,77.37
2023-03-29T10:02:21.319Z,77.59
2023-03-29T10:05:00.945Z,78.20
2023-03-29T10:07:55.558Z,78.00
2023-03-29T10:10:29.164Z,76.96
2023-03-29T10:13:04.550Z,75.95
2023-03-29T10:15:34.159Z,76.41
2023-03-29T10:18:06.992Z,76.35
2023-03-29T10:20:40.318Z,76.94
2023-03-29T10:23:18.038Z,76.32
2023-03-29T10:25:46.147Z,76.36
2023-03-29T10:28:17.634Z,76.13
2023-03-29T10:30:53.092Z,76.83
2023-03-29T10:33:26.475Z,77.10
2023-03-29T10:35:59.379Z,77.01
2023-03-29T10:38:29.987Z,76.92
2023-03-29T10:41:08.909Z,76.34
2023-03-29T10:43:45.493Z,76.20
2023-03-29T10:46:42.972Z,75.05
2023-03-29T10:49:20.810Z,74.58
2023-03-29T10:51:49.770Z,74.89
2023-03-29T10:54:22.115Z,74.38
2023-03-29T10:56:55.662Z,74.91
2023-03-29T10:59:31.231Z,75.37
2023-03-29T11:02:15.756Z,76.11
2023-03-29T11:04:48.167Z,76.44
2023-03-29T11:07:40.320Z,76.29
2023-03-29T11:10:33.390Z,76.62
2023-03-29T11:13:20.205Z,76.89
2023-03-29T11:15:57.021Z,77.07
2023-03-29T11:18:46.203Z,76.55
2023-03-29T11:21:27.591Z,76.78
2023-03-29T11:24:14.431Z,76.30
2023-03-29T11:27:07.286Z,76.77
2023-03-29T11:30:00.442Z,76.76
2023-03-29T11:32:49.685Z,76.64
2023-03-29T11:36:02.455Z,76.12
2023-03-29T11:38:45.108Z,75.28
2023-03-29T11:41:22.214Z,76.23
2023-03-29T11:43:55.059Z,75.25
2023-03-29T11:46:40.197Z,76.12
2023-03-29T11:49:11.237Z,75.64
2023-03-29T11:51:46.436Z,76.08
2023-03-29T11:54:20.634Z,75.81
2023-03-29T11:56:56.943Z,76.53
2023-03-29T12:00:00.326Z,77.01
2023-03-29T12:02:39.744Z,77.17
2023-03-29T12:05:19.127Z,77.07
2023-03-29T12:08:17.467Z,77.57
2023-03-29T12:11:14.304Z,77.20
2023-03-29T12:13:53.595Z,78.25
2023-03-29T12:16:39.630Z,77.90
2023-03-29T12:19:17.052Z,77.68
2023-03-29T12:21:46.667Z,79.00
2023-03-29T12:24:17.498Z,79.51
2023-03-29T12:27:20.379Z,80.27
2023-03-29T12:29:54.448Z,81.28
2023-03-29T12:32:46.356Z,81.53
2023-03-29T12:35:43.255Z,81.84
2023-03-29T12:38:42.782Z,81.88
2023-03-29T12:41:19.560Z,81.44
2023-03-29T12:44:25.594Z,81.58
2023-03-29T12:46:59.209Z,81.23
2023-03-29T12:49:44.764Z,80.94
2023-03-29T12:52:27.711Z,81.24
2023-03-29T12:55:02.007Z,81.28
2023-03-29T12:57:42.073Z,81.13
2023-03-29T13:00:53.167Z,81.38
2023-03-29T13:03:53.420Z,81.32
2023-03-29T13:07:08.512Z,81.43
2023-03-29T13:09:56.392Z,81.34
2023-03-29T13:12:41.173Z,81.32
2023-03-29T13:15:15.713Z,81.25
2023-03-29T13:18:01.635Z,81.05
2023-03-29T13:20:38.198Z,81.09
2023-03-29T13:23:27.245Z,80.96
2023-03-29T13:26:11.454Z,81.69
2023-03-29T13:29:03.565Z,81.87
2023-03-29T13:31:59.272Z,82.62
2023-03-29T13:35:12.259Z,83.00
2023-03-29T13:37:55.862Z,83.15
2023-03-29T13:40:46.320Z,83.09
2023-03-29T13:43:22.847Z,82.93
2023-03-29T13:45:59.729Z,82.59
2023-03-29T13:48:29.179Z,82.29
2023-03-29T13:51:10.842Z,82.09
2023-03-29T13:54:00.853Z,82.58
2023-03-29T13:56:56.126Z,81.98
2023-03-29T13:59:47.215Z,81.66
2023-03-29T14:02:36.977Z,81.84
2023-03-29T14:05:09.608Z,82.11
2023-03-29T14:07:43.486Z,81.98
2023-03-29T14:10:16.317Z,81.34
2023-03-29T14:12:46.892Z,81.15
2023-03-29T14:15:57.599Z,81.13
2023-03-29T14:18:30.482Z,81.23
2023-03-29T14:21:01.696Z,80.93
2023-03-29T14:23:36.588Z,80.89
2023-03-29T14:26:23.039Z,81.56
2023-03-29T14:28:51.050Z,81.81
2023-03-29T14:31:40.059Z,81.87
2023-03-29T14:34:15.947Z,82.15
2023-03-29T14:36:54.325Z,81.94
2023-03-29T14:39:23.727Z,81.91
2023-03-29T14:42:02.049Z,81.76
2023-03-29T14:44:33.225Z,81.78
2023-03-29T14:47:03.029Z,81.22
2023-03-29T14:49:31.760Z,81.65
2023-03-29T14:52:00.309Z,81.86
2023-03-29T14:54:36.331Z,81.92
2023-03-29T14:57:08.271Z,81.98
2023-03-29T14:59:39.807Z,81.77
2023-03-29T15:02:30.184Z,81.98
2023-03-29T15:05:04.777Z,82.67
2023-03-29T15:07:37.168Z,82.65
2023-03-29T15:10:06.616Z,82.71
2023-03-29T15:12:45.903Z,82.84
2023-03-29T15:17:59.052Z,82.17
2023-03-29T15:20:37.938Z,82.11
2023-03-29T15:23:16.333Z,82.26
2023-03-29T15:26:13.212Z,82.46
2023-03-29T15:28:57.514Z,82.44
2023-03-29T15:31:33.492Z,82.15
2023-03-29T15:34:06.990Z,82.53
2023-03-29T15:36:45.509Z,82.36
2023-03-29T15:39:16.096Z,82.43
2023-03-29T15:41:46.336Z,82.24
2023-03-29T15:44:20.091Z,82.41
2023-03-29T15:46:48.057Z,82.40
2023-03-29T15:49:16.411Z,82.66
2023-03-29T15:51:44.620Z,82.72
2023-03-29T15:54:12.601Z,82.69
2023-03-29T15:56:54.973Z,82.65
2023-03-29T15:59:23.334Z,82.73
2023-03-29T16:01:51.653Z,82.90
2023-03-29T16:04:21.669Z,82.84
2023-03-29T16:06:52.933Z,82.78
2023-03-29T16:09:22.606Z,82.56
2023-03-29T16:11:53.132Z,82.65
2023-03-29T16:14:31.623Z,82.74
2023-03-29T16:17:01.283Z,82.84
2023-03-29T16:19:38.529Z,82.80
2023-03-29T16:22:07.615Z,82.84
2023-03-29T16:24:36.521Z,82.76
2023-03-29T16:27:05.251Z,82.97
2023-03-29T16:29:33.172Z,83.03
2023-03-29T16:32:02.180Z,83.00
2023-03-29T16:34:35.938Z,83.08
2023-03-29T16:37:04.569Z,83.12
2023-03-29T16:39:33.293Z,83.00
2023-03-29T16:42:01.502Z,82.99
2023-03-29T16:44:30.126Z,83.38
2023-03-29T16:46:58.389Z,83.58
2023-03-29T16:49:26.544Z,83.93
2023-03-29T16:51:54.576Z,83.85
2023-03-29T16:54:25.523Z,84.19
2023-03-29T16:56:59.900Z,84.01
2023-03-29T16:59:31.710Z,84.12
2023-03-29T17:02:00.389Z,84.22
2023-03-29T17:04:29.444Z,84.27
2023-03-29T17:06:57.736Z,83.92
2023-03-29T17:09:28.384Z,83.87
2023-03-29T17:11:58.233Z,83.72
2023-03-29T17:14:26.548Z,84.05
2023-03-29T17:16:55.097Z,84.12
2023-03-29T17:19:24.406Z,84.04
2023-03-29T17:21:52.624Z,83.98
2023-03-29T17:24:21.064Z,83.73
2023-03-29T17:26:49.355Z,83.72
2023-03-29T17:29:17.393Z,83.79
2023-03-29T17:31:48.528Z,83.63
2023-03-29T17:34:19.103Z,83.87
2023-03-29T17:36:47.194Z,83.83
2023-03-29T17:39:27.533Z,83.87
2023-03-29T17:41:56.221Z,83.96
2023-03-29T17:44:24.412Z,84.04
2023-03-29T17:46:52.697Z,84.27
2023-03-29T17:49:24.175Z,84.56
2023-03-29T17:51:56.167Z,84.40
2023-03-29T17:54:24.183Z,84.53
2023-03-29T17:56:52.650Z,84.56
2023-03-29T17:59:20.705Z,84.46
2023-03-29T18:01:49.655Z,84.51
2023-03-29T18:04:17.697Z,84.43
2023-03-29T18:06:48.051Z,84.54
2023-03-29T18:09:16.258Z,84.51
2023-03-29T18:11:44.438Z,84.41
2023-03-29T18:14:12.548Z,84.28
2023-03-29T18:16:43.769Z,84.15
2023-03-29T18:19:13.602Z,84.28
2023-03-29T18:21:41.734Z,84.21
2023-03-29T18:24:12.477Z,84.29
2023-03-29T18:26:40.606Z,84.16
2023-03-29T18:29:09.865Z,84.24
2023-03-29T18:31:41.207Z,84.05
2023-03-29T18:34:09.445Z,84.09
2023-03-29T18:36:37.874Z,84.33
2023-03-29T18:39:09.782Z,84.21
2023-03-29T18:41:41.432Z,84.42
2023-03-29T18:44:11.014Z,84.51
2023-03-29T18:46:45.828Z,84.62
2023-03-29T18:49:25.736Z,85.00
2023-03-29T18:51:55.532Z,85.13
2023-03-29T18:54:27.241Z,85.27
2023-03-29T18:56:57.814Z,85.53
2023-03-29T18:59:27.391Z,85.82
2023-03-29T19:02:03.013Z,86.01
2023-03-29T19:04:31.661Z,86.29
2023-03-29T19:07:01.362Z,86.37
2023-03-29T19:09:29.784Z,86.57
2023-03-29T19:11:57.807Z,86.65
2023-03-29T19:14:26.069Z,86.85
2023-03-29T19:16:54.108Z,86.93
2023-03-29T19:19:23.955Z,87.02
2023-03-29T19:21:53.317Z,87.18
2023-03-29T19:24:21.986Z,87.33
2023-03-29T19:26:52.006Z,87.51
2023-03-29T19:29:20.608Z,87.71
2023-03-29T19:31:48.829Z,87.80
2023-03-29T19:34:19.623Z,88.01
2023-03-29T19:36:47.701Z,88.11
2023-03-29T19:39:15.896Z,88.19
2023-03-29T19:41:43.872Z,88.21
2023-03-29T19:44:12.003Z,88.23
2023-03-29T19:46:40.808Z,88.33
2023-03-29T19:49:13.565Z,88.57
2023-03-29T19:51:44.511Z,88.73
2023-03-29T19:54:13.817Z,88.96
2023-03-29T19:56:42.897Z,89.04
2023-03-29T19:59:11.273Z,89.13
2023-03-29T20:01:42.811Z,89.41
2023-03-29T20:04:11.901Z,89.47
2023-03-29T20:06:40.331Z,89.44
2023-03-29T20:09:08.880Z,89.60
2023-03-29T20:11:37.458Z,89.75
2023-03-29T20:14:05.752Z,89.74
2023-03-29T20:16:34.880Z,89.77
2023-03-29T20:19:04.018Z,89.95
2023-03-29T20:21:38.623Z,90.09
2023-03-29T20:24:08.671Z,90.19
2023-03-29T20:26:36.887Z,90.38
2023-03-29T20:29:04.720Z,90.34
2023-03-29T20:31:32.856Z,90.47
2023-03-29T20:34:01.114Z,90.73
2023-03-29T20:36:30.593Z,90.98
2023-03-29T20:38:59.436Z,91.16
2023-03-29T20:41:27.873Z,91.26
2023-03-29T20:44:02.799Z,91.58
2023-03-29T20:46:34.906Z,91.69
2023-03-29T20:49:05.989Z,91.70
2023-03-29T20:51:34.107Z,91.98
2023-03-29T20:54:43.927Z,92.03
2023-03-29T20:57:18.983Z,92.01
2023-03-29T20:59:49.289Z,92.08
2023-03-29T21:02:21.304Z,92.38
2023-03-29T21:04:53.606Z,92.44
2023-03-29T21:07:21.997Z,92.39
2023-03-29T21:09:50.468Z,92.47
2023-03-29T21:12:20.260Z,92.59
2023-03-29T21:14:48.269Z,92.53
2023-03-29T21:17:16.057Z,92.49
2023-03-29T21:19:43.918Z,92.31
2023-03-29T21:22:13.778Z,92.18
2023-03-29T21:24:41.741Z,92.11
2023-03-29T21:27:09.739Z,92.13
2023-03-29T21:29:37.969Z,92.15
2023-03-29T21:32:06.465Z,92.11
2023-03-29T21:34:34.363Z,92.00
2023-03-29T21:37:02.382Z,92.00
2023-03-29T21:39:30.787Z,91.85
2023-03-29T21:41:59.586Z,91.81
2023-03-29T21:44:27.576Z,91.76
2023-03-29T21:46:55.515Z,91.67
2023-03-29T21:49:23.734Z,91.67
2023-03-29T21:51:54.697Z,91.62
2023-03-29T21:54:25.340Z,91.53
2023-03-29T21:56:53.292Z,91.60
2023-03-29T21:59:21.316Z,91.71
2023-03-29T22:01:49.236Z,92.08
2023-03-29T22:04:29.193Z,92.21
2023-03-29T22:07:03.678Z,92.07
2023-03-29T22:09:34.887Z,92.15
2023-03-29T22:12:04.742Z,92.03
2023-03-29T22:14:39.809Z,91.32
2023-03-29T22:17:07.841Z,91.36
2023-03-29T22:19:39.967Z,91.12
2023-03-29T22:22:13.688Z,91.07
2023-03-29T22:24:42.569Z,90.97
2023-03-29T22:27:12.214Z,91.14
2023-03-29T22:29:40.458Z,91.12
2023-03-29T22:32:08.545Z,90.83
2023-03-29T22:34:36.658Z,90.45
2023-03-29T22:37:08.788Z,89.95
2023-03-29T22:39:38.028Z,89.50
2023-03-29T22:42:06.094Z,89.15
2023-03-29T22:44:34.132Z,88.31
2023-03-29T22:47:02.096Z,88.19
2023-03-29T22:49:30.052Z,88.04
2023-03-29T22:51:58.091Z,88.03
2023-03-29T22:54:27.133Z,88.22
2023-03-29T22:56:55.796Z,88.39
2023-03-29T22:59:25.401Z,88.37
2023-03-29T23:01:53.406Z,88.36
2023-03-29T23:04:21.459Z,88.74
2023-03-29T23:06:49.676Z,88.87
2023-03-29T23:09:17.649Z,87.87
2023-03-29T23:11:45.481Z,87.19
2023-03-29T23:14:14.883Z,87.11
2023-03-29T23:16:42.737Z,86.97
2023-03-29T23:19:10.693Z,85.94
2023-03-29T23:21:39.200Z,85.21
2023-03-29T23:24:07.741Z,85.00
2023-03-29T23:26:37.783Z,83.96
2023-03-29T23:29:06.115Z,83.54
2023-03-29T23:31:36.366Z,83.19
2023-03-29T23:34:04.716Z,83.20
2023-03-29T23:36:32.875Z,82.86
2023-03-29T23:39:07.319Z,82.70
2023-03-29T23:41:36.163Z,82.41
2023-03-29T23:44:04.071Z,82.18
2023-03-29T23:46:32.516Z,81.94
2023-03-29T23:49:00.576Z,81.93
2023-03-29T23:51:28.990Z,81.17
2023-03-29T23:53:57.110Z,80.93
2023-03-29T23:56:25.250Z,80.81
2023-03-29T23:58:53.192Z,80.71
